Time;durP1;ratioP1;P1;durP2;ratioP2;P2;SDS_P1;SDS_P2;PMS_P1;PMS_P2;Temp;Humidity;BMP_temperature;BMP_pressure;BME280_temperature;BME280_humidity;BME280_pressure;Samples;Min_cycle;Max_cycle;Signal;HPM_P1;HPM_P2
2021/06/29 00:00:33;;;;;;;22.03;11.37;;;;;;;21.39;59.38;100540.38;126260;1099;104142;-76
2021/06/29 00:03:22;;;;;;;20.70;10.57;;;;;;;21.34;59.37;100542.20;126292;1099;104274;-75
2021/06/29 00:05:53;;;;;;;20.93;11.13;;;;;;;21.32;59.44;100538.67;126380;1099;104198;-76
2021/06/29 00:08:28;;;;;;;18.90;11.10;;;;;;;21.30;59.22;100535.11;126372;1099;104339;-75
2021/06/29 00:10:59;;;;;;;19.77;10.63;;;;;;;21.28;59.35;100539.58;126351;1099;104226;-76
2021/06/29 00:13:31;;;;;;;19.83;11.00;;;;;;;21.29;60.01;100536.02;126282;1098;104288;-76
2021/06/29 00:16:04;;;;;;;19.70;10.80;;;;;;;21.26;60.56;100536.05;126388;1099;104149;-74
2021/06/29 00:18:38;;;;;;;17.77;10.47;;;;;;;21.24;59.57;100536.06;126297;1099;104247;-76
2021/06/29 00:21:10;;;;;;;18.50;10.83;;;;;;;21.23;59.86;100533.41;126333;1099;104237;-75
2021/06/29 00:23:41;;;;;;;18.43;10.73;;;;;;;21.24;60.41;100536.06;126326;1099;104137;-77
2021/06/29 00:26:15;;;;;;;19.77;10.90;;;;;;;21.29;60.04;100536.02;126373;1099;105038;-75
2021/06/29 00:28:47;;;;;;;19.93;10.97;;;;;;;21.30;59.94;100537.77;126393;1099;104205;-75
2021/06/29 00:31:21;;;;;;;22.50;12.23;;;;;;;21.31;60.28;100536.89;126290;1099;104213;-75
2021/06/29 00:33:52;;;;;;;20.30;11.90;;;;;;;21.30;60.34;100535.11;126238;1099;104143;-76
2021/06/29 00:36:31;;;;;;;19.67;11.40;;;;;;;21.26;60.68;100534.25;126368;1099;104140;-76
2021/06/29 00:39:02;;;;;;;19.60;11.47;;;;;;;21.22;60.37;100535.16;126361;1099;104146;-76
2021/06/29 00:41:33;;;;;;;20.47;10.77;;;;;;;21.19;60.45;100530.77;126340;1099;104127;-76
2021/06/29 00:44:03;;;;;;;20.47;11.60;;;;;;;21.18;60.63;100533.44;126300;1099;104378;-76
2021/06/29 00:46:35;;;;;;;22.10;11.30;;;;;;;21.15;60.53;100526.33;126354;1099;104192;-76
2021/06/29 00:49:06;;;;;;;19.77;11.03;;;;;;;21.11;60.11;100532.58;126366;1099;104179;-76
2021/06/29 00:51:37;;;;;;;19.90;11.57;;;;;;;21.09;61.38;100528.17;126362;1099;104114;-76
2021/06/29 00:54:08;;;;;;;19.10;11.40;;;;;;;21.06;60.43;100534.40;126318;1099;104152;-75
2021/06/29 00:56:40;;;;;;;18.80;11.53;;;;;;;21.03;60.82;100528.20;126343;1099;104245;-77
2021/06/29 01:01:56;;;;;;;19.53;11.60;;;;;;;20.95;61.74;100525.59;126299;1099;104146;-76
2021/06/29 01:04:27;;;;;;;20.97;12.43;;;;;;;20.93;61.27;100525.60;126305;1099;104214;-75
2021/06/29 01:06:58;;;;;;;19.20;11.60;;;;;;;20.93;61.90;100530.06;126324;1099;104216;-75
2021/06/29 01:09:37;;;;;;;21.40;12.03;;;;;;;20.89;61.89;100517.63;126309;1098;104213;-75
2021/06/29 01:12:12;;;;;;;20.05;12.15;;;;;;;20.86;61.83;100520.31;126294;1099;104225;-76
2021/06/29 01:14:43;;;;;;;21.27;11.60;;;;;;;20.88;61.75;100514.09;126275;1099;104149;-76
2021/06/29 01:17:14;;;;;;;19.07;10.90;;;;;;;20.93;61.96;100516.73;126344;1099;104175;-74
2021/06/29 01:19:47;;;;;;;24.10;12.03;;;;;;;20.95;61.93;100515.80;126365;1099;104153;-77
2021/06/29 01:22:19;;;;;;;20.47;12.13;;;;;;;20.96;61.03;100524.70;126295;1099;104139;-75
2021/06/29 01:24:52;;;;;;;21.80;13.17;;;;;;;20.95;61.98;100521.13;126268;1099;104219;-77
2021/06/29 01:27:37;;;;;;;23.30;12.23;;;;;;;20.95;61.75;100520.26;126358;1099;104191;-76
2021/06/29 01:32:53;;;;;;;19.73;12.53;;;;;;;20.86;62.15;100523.86;126358;1099;105267;-76
2021/06/29 01:35:24;;;;;;;21.17;11.80;;;;;;;20.85;62.28;100526.53;126301;1099;104182;-76
2021/06/29 01:37:56;;;;;;;21.50;12.73;;;;;;;20.82;62.64;100522.13;126346;1098;104379;-76
2021/06/29 01:40:29;;;;;;;25.70;12.87;;;;;;;20.78;62.56;100526.56;126356;1098;104206;-76
2021/06/29 01:43:00;;;;;;;24.15;12.80;;;;;;;20.76;61.91;100525.70;126311;1098;104255;-76
2021/06/29 01:45:32;;;;;;;20.33;12.73;;;;;;;20.76;62.10;100517.70;126294;1099;104143;-75
2021/06/29 01:48:05;;;;;;;19.83;12.27;;;;;;;20.78;62.29;100512.36;126373;1099;104277;-77
2021/06/29 01:50:37;;;;;;;21.33;12.00;;;;;;;20.83;62.93;100516.78;126354;1099;104191;-75
2021/06/29 01:53:08;;;;;;;20.33;11.53;;;;;;;20.88;62.28;100513.18;126347;1099;104194;-76
2021/06/29 01:55:38;;;;;;;21.43;12.70;;;;;;;20.87;62.09;100514.09;126315;1099;104160;-76
2021/06/29 01:58:09;;;;;;;21.10;13.10;;;;;;;20.81;62.70;100515.88;126378;1099;104159;-76
2021/06/29 02:00:41;;;;;;;22.13;12.27;;;;;;;20.76;62.12;100520.38;126380;1099;104965;-75
2021/06/29 02:03:15;;;;;;;20.20;12.13;;;;;;;20.70;62.92;100520.41;126347;1098;104616;-75
2021/06/29 02:05:47;;;;;;;22.45;12.15;;;;;;;20.65;62.62;100523.09;126327;1099;104172;-76
2021/06/29 02:08:18;;;;;;;24.80;12.80;;;;;;;20.64;63.04;100523.06;126340;1099;104236;-77
2021/06/29 02:10:49;;;;;;;23.13;12.50;;;;;;;20.60;63.07;100532.88;126387;1099;104258;-76
2021/06/29 02:13:21;;;;;;;21.07;12.70;;;;;;;20.56;62.46;100528.44;126321;1099;104210;-76
2021/06/29 02:15:55;;;;;;;23.27;12.53;;;;;;;20.54;62.97;100521.36;126270;1099;104143;-76
2021/06/29 02:18:26;;;;;;;21.43;13.03;;;;;;;20.53;62.96;100522.25;126362;1098;104165;-76
2021/06/29 02:20:57;;;;;;;20.70;13.40;;;;;;;20.53;63.18;100517.79;126315;1099;104143;-76
2021/06/29 02:23:28;;;;;;;22.83;12.00;;;;;;;20.56;62.82;100522.23;126347;1099;104140;-75
2021/06/29 02:25:58;;;;;;;21.80;12.73;;;;;;;20.57;62.63;100515.98;126317;1099;104140;-77
2021/06/29 02:28:29;;;;;;;21.10;13.10;;;;;;;20.57;63.39;100522.23;126339;1099;104345;-76
2021/06/29 02:30:59;;;;;;;20.90;12.77;;;;;;;20.57;63.06;100524.89;126375;1099;104144;-76
2021/06/29 02:33:30;;;;;;;19.27;12.57;;;;;;;20.56;63.28;100528.44;126369;1099;104161;-75
2021/06/29 02:36:01;;;;;;;23.97;12.57;;;;;;;20.55;63.12;100515.12;126306;1099;104140;-76
2021/06/29 02:38:31;;;;;;;21.57;13.50;;;;;;;20.54;63.35;100522.23;126343;1099;104130;-75
2021/06/29 02:41:02;;;;;;;24.10;12.80;;;;;;;20.54;62.80;100526.70;126358;1099;104319;-76
2021/06/29 02:43:35;;;;;;;25.33;13.07;;;;;;;20.55;63.48;100525.78;126346;1099;104187;-76
2021/06/29 02:46:06;;;;;;;21.57;13.28;;;;;;;20.53;63.01;100524.91;126270;1099;104201;-75
2021/06/29 02:48:37;;;;;;;23.70;12.73;;;;;;;20.52;63.38;100520.47;126373;1098;104233;-76
2021/06/29 02:51:08;;;;;;;25.03;13.20;;;;;;;20.53;63.26;100522.25;126342;1098;104188;-76
2021/06/29 02:53:42;;;;;;;24.37;13.30;;;;;;;20.56;64.27;100524.90;126317;1099;104191;-76
2021/06/29 02:58:57;;;;;;;27.67;13.73;;;;;;;20.63;64.36;100523.95;126344;1099;104200;-75
2021/06/29 03:01:28;;;;;;;23.40;13.37;;;;;;;20.68;63.39;100522.20;126358;1099;104139;-76
2021/06/29 03:03:59;;;;;;;22.57;12.83;;;;;;;20.66;63.85;100518.64;126303;1099;104242;-75
2021/06/29 03:06:29;;;;;;;23.23;12.87;;;;;;;20.65;63.54;100530.22;126276;1099;104143;-76
2021/06/29 03:09:01;;;;;;;23.95;13.50;;;;;;;20.66;64.44;100523.97;126381;1099;104198;-75
2021/06/29 03:11:34;;;;;;;24.63;13.87;;;;;;;20.67;63.41;100531.08;126315;1098;104236;-77
2021/06/29 03:14:08;;;;;;;22.53;13.03;;;;;;;20.67;64.04;100520.42;126361;1099;104242;-76
2021/06/29 03:16:39;;;;;;;24.83;13.90;;;;;;;20.69;64.46;100531.08;126284;1099;104191;-76
2021/06/29 03:19:09;;;;;;;24.13;13.37;;;;;;;20.71;64.64;100526.61;126357;1099;104169;-76
2021/06/29 03:21:40;;;;;;;23.63;13.63;;;;;;;20.73;64.83;100520.39;126342;1099;104140;-76
2021/06/29 03:24:11;;;;;;;25.43;14.30;;;;;;;20.74;64.84;100527.50;126360;1099;104172;-76
2021/06/29 03:26:42;;;;;;;22.67;13.63;;;;;;;20.76;64.96;100536.37;126362;1099;104213;-76
2021/06/29 03:29:13;;;;;;;22.90;13.47;;;;;;;20.78;64.43;100534.57;126375;1099;104266;-76
2021/06/29 03:31:45;;;;;;;22.63;13.50;;;;;;;20.82;64.92;100533.67;126334;1099;104398;-76
2021/06/29 03:34:16;;;;;;;21.57;13.40;;;;;;;20.85;64.68;100522.11;126335;1098;104139;-77
2021/06/29 03:36:47;;;;;;;21.97;13.47;;;;;;;20.91;64.98;100530.07;126311;1099;104162;-77
2021/06/29 03:39:18;;;;;;;23.73;13.33;;;;;;;20.97;65.03;100526.45;126356;1097;104246;-76
2021/06/29 03:41:49;;;;;;;24.90;13.15;;;;;;;21.01;65.23;100528.22;126374;1099;104245;-77
2021/06/29 03:44:19;;;;;;;24.67;13.20;;;;;;;21.04;65.23;100525.53;126303;1099;104425;-76
2021/06/29 03:46:50;;;;;;;22.33;13.20;;;;;;;21.05;64.42;100524.64;126282;1099;104309;-76
2021/06/29 03:49:21;;;;;;;23.40;12.97;;;;;;;21.11;64.30;100531.70;126226;1099;109441;-75
2021/06/29 03:51:53;;;;;;;25.03;13.30;;;;;;;21.17;65.22;100526.32;126372;1099;104136;-76
2021/06/29 03:54:24;;;;;;;21.90;12.63;;;;;;;21.24;64.59;100520.05;126363;1099;104165;-76
2021/06/29 03:56:54;;;;;;;20.60;12.80;;;;;;;21.28;64.50;100518.23;126288;1099;104299;-75
2021/06/29 03:59:25;;;;;;;24.20;12.33;;;;;;;21.29;63.97;100522.69;126309;1099;105035;-75
2021/06/29 04:01:56;;;;;;;21.83;12.57;;;;;;;21.32;65.23;100517.33;126361;1099;104143;-76
2021/06/29 04:04:26;;;;;;;20.43;12.30;;;;;;;21.39;64.41;100526.16;126363;1099;104219;-75
2021/06/29 04:06:57;;;;;;;36.77;14.00;;;;;;;21.45;65.43;100521.64;126292;1099;104133;-76
2021/06/29 04:09:28;;;;;;;21.90;12.17;;;;;;;21.47;65.22;100519.86;126296;1099;104329;-77
2021/06/29 04:11:59;;;;;;;20.03;12.00;;;;;;;21.49;64.82;100512.75;126352;1099;104134;-77
2021/06/29 04:14:29;;;;;;;19.67;11.80;;;;;;;21.52;64.47;100523.40;126307;1099;104144;-76
2021/06/29 04:17:00;;;;;;;22.37;11.27;;;;;;;21.59;65.00;100518.00;126333;1099;104168;-75
2021/06/29 04:19:31;;;;;;;18.63;11.43;;;;;;;21.62;64.23;100528.66;126293;1099;104133;-76
2021/06/29 04:22:01;;;;;;;23.97;11.40;;;;;;;21.65;64.41;100528.63;126306;1098;104146;-77
2021/06/29 04:24:34;;;;;;;20.20;11.67;;;;;;;21.69;64.51;100530.34;126295;1099;104134;-77
2021/06/29 04:27:05;;;;;;;18.87;10.90;;;;;;;21.76;65.12;100525.86;126342;1099;104136;-77
2021/06/29 04:29:36;;;;;;;25.63;11.97;;;;;;;21.82;64.63;100520.45;126293;1099;104146;-75
2021/06/29 04:32:08;;;;;;;21.87;11.47;;;;;;;21.87;64.81;100522.16;126235;1099;104300;-76
2021/06/29 04:34:38;;;;;;;21.73;12.30;;;;;;;21.93;64.47;100526.56;126230;1099;104248;-77
2021/06/29 04:37:10;;;;;;;22.47;11.07;;;;;;;21.96;64.83;100525.66;126337;1099;104287;-79
2021/06/29 04:39:41;;;;;;;19.33;11.53;;;;;;;21.99;64.52;100517.61;126257;1099;105482;-78
2021/06/29 04:42:12;;;;;;;18.97;10.83;;;;;;;22.03;64.79;100525.57;126326;1099;104150;-77
2021/06/29 04:44:43;;;;;;;20.80;11.53;;;;;;;22.07;64.30;100524.61;126346;1099;104245;-76
2021/06/29 04:47:14;;;;;;;24.33;11.07;;;;;;;22.14;64.95;100522.75;126315;1099;104473;-76
2021/06/29 04:49:45;;;;;;;21.70;11.53;;;;;;;22.20;63.87;100513.78;126275;1099;104152;-78
2021/06/29 04:52:15;;;;;;;20.33;11.60;;;;;;;22.26;64.63;100522.60;126305;1099;104172;-79
2021/06/29 04:54:46;;;;;;;29.00;12.13;;;;;;;22.32;64.52;100528.83;126281;1099;104140;-78
2021/06/29 04:57:17;;;;;;;20.73;11.83;;;;;;;22.39;64.15;100527.83;126290;1099;104254;-77
2021/06/29 04:59:48;;;;;;;19.87;10.53;;;;;;;22.47;64.22;100527.73;126199;1099;104159;-79
2021/06/29 05:02:18;;;;;;;20.33;10.90;;;;;;;22.53;64.32;100530.33;126261;1099;104146;-78
2021/06/29 05:04:49;;;;;;;24.07;11.50;;;;;;;22.60;64.25;100524.88;126310;1099;104137;-77
2021/06/29 05:07:20;;;;;;;22.33;10.93;;;;;;;22.64;64.20;100523.07;126323;1099;105304;-78
2021/06/29 05:09:51;;;;;;;21.23;11.87;;;;;;;22.70;63.68;100522.95;126200;1099;104133;-78
2021/06/29 05:12:22;;;;;;;17.77;10.60;;;;;;;22.74;63.54;100521.14;126298;1099;104195;-79
2021/06/29 05:14:53;;;;;;;21.33;10.97;;;;;;;22.80;64.09;100511.23;126284;1099;104149;-79
2021/06/29 05:17:23;;;;;;;19.17;10.30;;;;;;;22.85;63.61;100516.52;126281;1099;104277;-80
2021/06/29 05:19:54;;;;;;;22.23;10.53;;;;;;;22.93;63.86;100519.08;126221;1099;104861;-77
2021/06/29 05:22:26;;;;;;;19.93;10.47;;;;;;;22.95;63.87;100512.81;126201;1099;104293;-79
2021/06/29 05:24:58;;;;;;;18.93;10.53;;;;;;;22.98;63.26;100512.77;126265;1099;104303;-79
2021/06/29 05:27:32;;;;;;;20.90;10.00;;;;;;;23.04;63.47;100510.89;126300;1099;104191;-78
2021/06/29 05:30:08;;;;;;;20.23;10.33;;;;;;;23.08;63.35;100513.53;126309;1099;104235;-79
2021/06/29 05:32:43;;;;;;;21.37;10.77;;;;;;;23.14;62.94;100509.88;126246;1099;104189;-78
2021/06/29 05:35:15;;;;;;;18.80;9.20;;;;;;;23.22;63.35;100518.66;126184;1099;104213;-78
2021/06/29 05:37:48;;;;;;;21.20;10.53;;;;;;;23.31;62.72;100515.84;126241;1099;104204;-78
2021/06/29 05:40:20;;;;;;;23.03;10.60;;;;;;;23.39;62.70;100509.45;126130;1099;104176;-78
2021/06/29 05:42:52;;;;;;;18.43;10.23;;;;;;;23.45;63.03;100512.93;126169;1099;104309;-77
2021/06/29 05:45:24;;;;;;;18.17;10.20;;;;;;;23.48;62.44;100511.97;126288;1099;104235;-78
2021/06/29 05:48:02;;;;;;;24.10;10.07;;;;;;;23.50;62.40;100516.40;126240;1099;104275;-77
2021/06/29 05:50:35;;;;;;;20.90;10.30;;;;;;;23.54;62.39;100509.19;125981;1099;104219;-76
2021/06/29 05:53:09;;;;;;;21.77;10.37;;;;;;;23.62;62.53;100509.95;126221;1099;104131;-78
2021/06/29 05:55:49;;;;;;;17.33;9.00;;;;;;;23.66;62.09;100506.29;126208;1099;104249;-79
2021/06/29 05:58:23;;;;;;;21.33;10.53;;;;;;;23.73;61.88;100500.81;126211;1097;104236;-77
2021/06/29 06:00:56;;;;;;;23.97;11.13;;;;;;;23.79;61.97;100500.70;126272;1099;104187;-78
2021/06/29 06:03:33;;;;;;;20.10;10.70;;;;;;;23.82;61.98;100492.61;126028;1099;104354;-78
2021/06/29 06:06:08;;;;;;;23.63;11.00;;;;;;;23.89;62.12;100496.98;126069;1099;104274;-79
2021/06/29 06:08:44;;;;;;;20.50;9.17;;;;;;;23.98;61.73;100501.26;126133;1099;104309;-80
2021/06/29 06:11:22;;;;;;;17.57;8.93;;;;;;;24.08;61.42;100501.98;126055;1099;104154;-79
2021/06/29 06:13:56;;;;;;;21.93;9.40;;;;;;;24.18;61.38;100506.22;125991;1099;104679;-80
2021/06/29 06:16:29;;;;;;;19.23;9.57;;;;;;;24.28;61.03;100509.59;126077;1099;104368;-78
2021/06/29 06:19:05;;;;;;;20.03;9.07;;;;;;;24.36;60.94;100518.37;126044;1098;104172;-77
2021/06/29 06:21:38;;;;;;;20.83;9.90;;;;;;;24.41;60.84;100514.66;125896;1099;102768;-74
2021/06/29 06:24:11;;;;;;;21.73;10.00;;;;;;;24.46;60.53;100516.38;126041;1099;104255;-74
2021/06/29 06:26:44;;;;;;;22.90;10.75;;;;;;;24.48;60.70;100510.08;126041;1099;104176;-76
2021/06/29 06:29:19;;;;;;;24.10;10.00;;;;;;;24.53;60.60;100516.21;125159;1099;104300;-76
2021/06/29 06:31:51;;;;;;;18.70;9.27;;;;;;;24.58;60.23;100522.38;125211;1099;104182;-76
2021/06/29 06:34:22;;;;;;;18.00;9.03;;;;;;;24.66;60.02;100519.53;125225;1102;104204;-75
2021/06/29 06:36:55;;;;;;;20.33;8.13;;;;;;;24.75;59.75;100522.01;125164;1099;104210;-76
2021/06/29 06:39:27;;;;;;;17.03;7.00;;;;;;;24.83;58.83;100521.84;125210;1099;104328;-77
2021/06/29 06:42:02;;;;;;;17.03;7.00;;;;;;;24.92;58.95;100518.07;125103;1099;104737;-77
2021/06/29 06:44:37;;;;;;;18.77;6.77;;;;;;;25.01;58.21;100525.00;125231;1102;104303;-76
2021/06/29 06:47:10;;;;;;;15.27;7.23;;;;;;;25.05;58.29;100514.16;125395;1098;104149;-76
2021/06/29 06:49:47;;;;;;;13.37;6.93;;;;;;;25.12;58.34;100515.78;126093;1099;104226;-77
2021/06/29 06:52:20;;;;;;;13.83;6.70;;;;;;;25.25;57.70;100515.48;126223;1099;104140;-77
2021/06/29 06:55:07;;;;;;;11.70;6.40;;;;;;;25.42;57.37;100517.78;126212;1099;104236;-80
2021/06/29 06:57:50;;;;;;;17.20;7.87;;;;;;;25.59;57.03;100520.91;125453;1102;104650;-79
2021/06/29 07:03:30;;;;;;;17.75;8.95;;;;;;;25.86;56.55;100521.09;125260;1102;104216;-78
2021/06/29 07:06:09;;;;;;;15.20;7.45;;;;;;;25.99;56.63;100513.59;124907;1102;104352;-77
2021/06/29 07:08:42;;;;;;;13.63;6.97;;;;;;;26.03;56.10;100515.28;124851;1102;104384;-78
2021/06/29 07:11:18;;;;;;;19.07;7.83;;;;;;;26.16;55.73;100508.64;124937;1102;104297;-80
2021/06/29 07:13:52;;;;;;;15.67;7.77;;;;;;;26.35;55.50;100516.14;125062;1102;104313;-79
2021/06/29 07:16:29;;;;;;;18.47;7.57;;;;;;;26.51;55.12;100520.16;124980;1102;104299;-79
2021/06/29 07:19:03;;;;;;;20.93;7.97;;;;;;;26.63;54.69;100518.01;125137;1102;104210;-78
2021/06/29 07:21:37;;;;;;;17.27;6.57;;;;;;;26.78;54.08;100520.27;124951;1102;104306;-77
2021/06/29 07:24:13;;;;;;;12.33;6.03;;;;;;;26.98;53.95;100521.46;125126;1102;104178;-80
2021/06/29 07:26:49;;;;;;;12.75;6.05;;;;;;;27.09;53.44;100519.29;125152;1102;104402;-79
2021/06/29 07:29:23;;;;;;;20.67;7.70;;;;;;;27.22;53.32;100520.66;125200;1102;102306;-79
2021/06/29 07:32:12;;;;;;;19.10;7.45;;;;;;;27.39;53.22;100513.84;125324;1102;105100;-78
2021/06/29 07:34:57;;;;;;;13.40;7.40;;;;;;;27.55;53.27;100512.40;125156;1102;104418;-79
2021/06/29 07:37:39;;;;;;;17.37;7.33;;;;;;;27.76;52.56;100510.75;125986;1099;104239;-79
2021/06/29 07:40:13;;;;;;;12.63;6.87;;;;;;;28.00;51.91;100507.26;126130;1099;104155;-78
2021/06/29 07:42:48;;;;;;;16.53;6.63;;;;;;;28.15;51.61;100498.60;126069;1099;104156;-79
2021/06/29 07:45:27;;;;;;;13.53;6.87;;;;;;;28.28;51.44;100505.31;126108;1099;118553;-80
2021/06/29 07:48:06;;;;;;;12.03;6.20;;;;;;;28.38;51.33;100511.22;126030;1099;104141;-78
2021/06/29 07:50:38;;;;;;;11.85;6.40;;;;;;;28.48;50.95;100507.21;126026;1099;104201;-78
2021/06/29 07:53:14;;;;;;;18.07;6.37;;;;;;;28.64;50.35;100503.95;126051;1098;104159;-79
2021/06/29 07:55:49;;;;;;;12.10;5.90;;;;;;;28.90;49.80;100504.75;126224;1099;104172;-80
2021/06/29 07:58:25;;;;;;;15.80;6.00;;;;;;;29.10;49.20;100509.34;126268;1099;104185;-78
2021/06/29 08:01:04;;;;;;;15.83;6.60;;;;;;;29.26;48.65;100506.91;126217;1099;104184;-79
2021/06/29 08:03:38;;;;;;;17.23;6.20;;;;;;;29.31;48.41;100504.87;126201;1099;105545;-79
2021/06/29 08:06:14;;;;;;;15.15;6.15;;;;;;;29.33;48.21;100509.28;126092;1099;104210;-78
2021/06/29 08:08:52;;;;;;;14.13;5.57;;;;;;;29.47;47.22;100511.40;126120;1099;104270;-78
2021/06/29 08:11:26;;;;;;;14.30;6.00;;;;;;;29.60;47.16;100514.45;126073;1099;104210;-78
2021/06/29 08:14:00;;;;;;;16.03;6.30;;;;;;;29.65;46.92;100514.24;126116;1097;104229;-79
2021/06/29 08:16:37;;;;;;;13.63;7.30;;;;;;;29.85;46.40;100511.56;126040;1099;104213;-81
2021/06/29 08:19:13;;;;;;;16.43;7.20;;;;;;;30.04;45.92;100511.61;126102;1099;104210;-80
2021/06/29 08:21:49;;;;;;;14.67;6.60;;;;;;;30.18;46.11;100508.28;126109;1099;104152;-79
2021/06/29 08:24:28;;;;;;;13.13;6.60;;;;;;;30.29;45.33;100510.49;126108;1099;104156;-79
2021/06/29 08:27:04;;;;;;;11.10;6.17;;;;;;;30.29;45.37;100505.98;126475;1099;104169;-81
2021/06/29 08:29:37;;;;;;;12.50;6.87;;;;;;;30.33;44.85;100512.12;126199;1099;104143;-78
2021/06/29 08:32:19;;;;;;;13.97;7.00;;;;;;;30.44;44.80;100501.69;126109;1099;104156;-80
2021/06/29 08:34:52;;;;;;;15.33;6.77;;;;;;;30.61;44.25;100509.02;126058;1099;104158;-78
2021/06/29 08:37:26;;;;;;;14.07;7.50;;;;;;;30.67;44.06;100504.25;126002;1099;104213;-79
2021/06/29 08:40:01;;;;;;;12.63;7.07;;;;;;;30.77;43.67;100506.44;126017;1099;104309;-77
2021/06/29 08:42:34;;;;;;;16.37;7.27;;;;;;;30.80;43.21;100498.16;126126;1099;104147;-78
2021/06/29 08:45:10;;;;;;;15.27;7.30;;;;;;;30.75;42.99;100500.23;125961;1099;104171;-77
2021/06/29 08:47:44;;;;;;;12.20;6.57;;;;;;;30.88;42.91;100502.34;126163;1099;104175;-79
2021/06/29 08:50:18;;;;;;;12.50;6.27;;;;;;;30.94;42.84;100507.45;126083;1099;104392;-79
2021/06/29 08:52:53;;;;;;;13.50;6.60;;;;;;;31.02;42.54;100501.70;126069;1099;104424;-76
2021/06/29 08:55:29;;;;;;;10.78;6.15;;;;;;;31.07;42.13;100502.33;126099;1099;104245;-78
2021/06/29 08:58:01;;;;;;;14.23;6.53;;;;;;;30.97;42.07;100496.50;126170;1099;104175;-78
2021/06/29 09:00:35;;;;;;;15.17;6.50;;;;;;;31.06;41.88;100495.19;126179;1099;104166;-77
2021/06/29 09:03:07;;;;;;;12.20;6.67;;;;;;;31.09;41.51;100490.48;126168;1099;104124;-79
2021/06/29 09:05:47;;;;;;;14.20;6.77;;;;;;;31.03;41.34;100490.78;126110;1099;104162;-77
2021/06/29 09:08:22;;;;;;;12.47;6.60;;;;;;;30.90;41.11;100492.30;126278;1099;104242;-77
2021/06/29 09:11:09;;;;;;;11.83;6.90;;;;;;;30.76;41.16;100491.16;126125;1098;104136;-77
2021/06/29 09:13:44;;;;;;;11.80;7.00;;;;;;;30.79;41.20;100487.41;126008;1099;104175;-77
2021/06/29 09:16:25;;;;;;;14.10;7.07;;;;;;;30.69;41.14;100486.98;125976;1098;104307;-78
2021/06/29 09:18:57;;;;;;;13.90;6.70;;;;;;;30.45;40.86;100499.88;125993;1099;104592;-78
2021/06/29 09:21:36;;;;;;;12.53;6.93;;;;;;;30.44;40.89;100492.70;126011;1098;104331;-79
2021/06/29 09:24:11;;;;;;;11.33;6.90;;;;;;;30.56;41.14;100485.80;126056;1098;104239;-80
2021/06/29 09:26:45;;;;;;;14.33;7.33;;;;;;;30.67;41.07;100480.77;126064;1099;104184;-78
2021/06/29 09:29:34;;;;;;;10.57;6.90;;;;;;;30.77;40.99;100482.06;126220;1099;104162;-79
2021/06/29 09:32:19;;;;;;;12.90;6.67;;;;;;;30.82;40.82;100477.32;126209;1099;104197;-79
2021/06/29 09:35:08;;;;;;;12.93;7.10;;;;;;;30.75;40.46;100473.14;126165;1099;104291;-79
2021/06/29 09:37:49;;;;;;;12.37;7.10;;;;;;;30.66;40.81;100476.30;126319;1098;111635;-79
2021/06/29 09:40:25;;;;;;;15.43;7.20;;;;;;;30.66;40.66;100476.30;126284;1098;104150;-79
2021/06/29 09:43:10;;;;;;;15.90;7.15;;;;;;;30.64;40.40;100472.80;126317;1099;104136;-79
2021/06/29 09:45:47;;;;;;;18.77;7.10;;;;;;;30.60;40.56;100466.63;126189;1099;105620;-79
2021/06/29 09:48:36;;;;;;;11.53;7.17;;;;;;;30.51;40.12;100467.11;126240;1099;104181;-79
2021/06/29 09:51:21;;;;;;;13.43;7.13;;;;;;;30.38;40.17;100457.77;126165;1099;104158;-80
2021/06/29 09:54:09;;;;;;;13.93;7.42;;;;;;;30.22;40.13;100461.20;126235;1099;104155;-79
2021/06/29 09:57:00;;;;;;;14.25;7.47;;;;;;;30.14;40.26;100457.98;126194;1099;104697;-78
2021/06/29 09:59:31;;;;;;;;;;;;;;;30.09;40.24;100460.91;126112;1098;104140;-80
2021/06/29 10:02:13;;;;;;;14.03;6.87;;;;;;;30.02;40.26;100456.70;126173;1099;105005;-80
2021/06/29 10:05:09;;;;;;;13.37;7.03;;;;;;;30.14;40.55;100444.45;125980;1099;104152;-78
2021/06/29 10:07:45;;;;;;;12.83;7.00;;;;;;;30.43;40.58;100443.11;126008;1099;104213;-78
2021/06/29 10:10:18;;;;;;;12.23;7.07;;;;;;;30.64;40.49;100449.30;125891;1099;104309;-79
2021/06/29 10:12:51;;;;;;;12.82;7.10;;;;;;;30.79;40.45;100444.97;125963;1099;104172;-78
2021/06/29 10:15:24;;;;;;;11.87;7.20;;;;;;;30.77;40.10;100454.11;125941;1099;104176;-78
2021/06/29 10:17:56;;;;;;;12.13;7.00;;;;;;;30.59;40.03;100456.78;125912;1099;104255;-78
2021/06/29 10:20:47;;;;;;;15.50;7.60;;;;;;;30.45;40.13;100449.32;125251;1099;104153;-80
2021/06/29 10:23:22;;;;;;;12.27;7.13;;;;;;;30.37;40.07;100446.08;126088;1099;104164;-78
2021/06/29 10:25:57;;;;;;;12.77;7.23;;;;;;;30.42;40.07;100449.47;126047;1098;104882;-78
2021/06/29 10:28:29;;;;;;;10.63;7.17;;;;;;;30.62;40.21;100450.31;125872;1099;104288;-78
2021/06/29 10:31:06;;;;;;;12.27;6.70;;;;;;;30.67;40.15;100445.57;126138;1099;104163;-78
2021/06/29 10:33:53;;;;;;;11.50;6.57;;;;;;;30.70;40.15;100440.01;126090;1099;104178;-80
2021/06/29 10:36:29;;;;;;;10.90;6.50;;;;;;;30.86;40.19;100441.95;125895;1099;104229;-79
2021/06/29 10:39:02;;;;;;;13.03;6.93;;;;;;;30.90;40.02;100436.31;126145;1099;104341;-79
2021/06/29 10:41:40;;;;;;;11.33;6.90;;;;;;;30.93;40.09;100427.13;126222;1099;104210;-78
2021/06/29 10:44:18;;;;;;;13.17;6.40;;;;;;;30.93;40.15;100424.42;126180;1099;104277;-79
2021/06/29 10:46:51;;;;;;;11.57;6.83;;;;;;;30.94;40.02;100439.73;126199;1099;104265;-78
2021/06/29 10:49:36;;;;;;;12.93;7.37;;;;;;;30.90;39.94;100436.31;126219;1099;117847;-78
2021/06/29 10:52:40;;;;;;;12.03;7.30;;;;;;;30.77;39.92;100424.32;126268;1099;104146;-78
2021/06/29 10:55:28;;;;;;;17.23;7.27;;;;;;;30.69;39.89;100430.12;125665;1099;104205;-78
2021/06/29 10:58:05;;;;;;;11.47;7.07;;;;;;;30.67;39.87;100429.33;126066;1099;104614;-78
2021/06/29 11:00:40;;;;;;;11.10;7.00;;;;;;;30.72;39.83;100429.09;126278;1099;104149;-78
2021/06/29 11:03:18;;;;;;;13.08;7.10;;;;;;;30.70;39.35;100437.30;126289;1099;104201;-77
2021/06/29 11:06:03;;;;;;;18.93;7.80;;;;;;;30.67;39.66;100439.26;126054;1099;104491;-77
2021/06/29 11:08:49;;;;;;;13.77;7.63;;;;;;;30.63;39.83;100441.25;126043;1099;104219;-78
2021/06/29 11:11:21;;;;;;;13.27;7.33;;;;;;;30.83;39.80;100433.01;125973;1099;104137;-77
2021/06/29 11:13:56;;;;;;;12.53;7.23;;;;;;;31.01;39.84;100427.67;126025;1099;104150;-76
2021/06/29 11:16:50;;;;;;;13.53;7.70;;;;;;;31.12;39.78;100428.00;126064;1099;104197;-75
2021/06/29 11:19:46;;;;;;;12.17;7.20;;;;;;;31.05;39.88;100425.68;126152;1099;105569;-76
2021/06/29 11:22:46;;;;;;;14.83;7.50;;;;;;;30.88;39.72;100429.20;126247;1099;104165;-77
2021/06/29 11:25:38;;;;;;;15.40;7.10;;;;;;;30.66;39.73;100422.14;126146;1099;104213;-78
2021/06/29 11:28:14;;;;;;;11.77;7.10;;;;;;;30.47;39.77;100417.63;126253;1098;104149;-76
2021/06/29 11:31:04;;;;;;;10.83;7.23;;;;;;;30.35;40.02;100423.59;126247;1099;104187;-77
2021/06/29 11:33:44;;;;;;;12.57;7.37;;;;;;;30.23;39.80;100416.06;125985;1099;104233;-78
2021/06/29 11:36:40;;;;;;;13.85;7.35;;;;;;;30.12;39.72;100421.98;125292;1099;104766;-78
2021/06/29 11:42:31;;;;;;;12.87;8.30;;;;;;;30.02;39.83;100410.72;125948;1099;104287;-79
2021/06/29 11:45:12;;;;;;;14.10;7.37;;;;;;;30.09;39.93;100401.38;125320;1099;104201;-78